Flight Track Log - Related Links

Times and Time Zones

All times are in EDT time to prevent confusion due to time zone crossing. See the EJA922 flight status page for this flight to view local times or setup timezone preferences in your user account.

Time Position Orientation Groundspeed Altitude Reporting Facility
EDT Latitude Longitude Course Direction KTS MPH feet Rate Location/Type
Mon 04:22:18 PM 40.8167 -74.1333 252° West 187 215 1,600  Level New York TRACON
Mon 04:23:24 PM 40.8000 -74.2000 252° West 199 229 4,300 2,143 Climbing New York TRACON
Mon 04:24:24 PM 40.8500 -74.2333 333° Northwest 228 262 6,100 900 Climbing New York TRACON
Mon 04:25:24 PM 40.9333 -74.2000 17° North 261 300 6,100  Level New York TRACON
Mon 04:26:24 PM 41.0000 -74.1833 11° North 262 302 6,100  Level New York TRACON
Mon 04:27:18 PM 41.0500 -74.1667 14° North 260 299 6,100 113 Level New York TRACON
Mon 04:29:04 PM 41.1389 -74.0547 43° Northeast 263 303 6,400 497 Climbing Boston Center
Mon 04:30:07 PM 41.1703 -73.9517 68° East 280 322 7,500 2,274 Climbing Boston Center
Mon 04:31:08 PM 41.2017 -73.8472 68° East 303 349 11,100 2,975 Climbing Boston Center
Mon 04:32:08 PM 41.2403 -73.7203 68° East 369 425 13,500 1,902 Climbing Boston Center
Mon 04:33:11 PM 41.2850 -73.5658 69° East 415 478 15,000 726 Climbing Boston Center
Mon 04:34:12 PM 41.3233 -73.4053 72° East 451 519 15,000  Level Boston Center
Mon 04:35:12 PM 41.3828 -73.2494 63° Northeast 450 518 15,000  Level Boston Center
Mon 04:36:13 PM 41.4378 -73.1006 64° Northeast 450 518 15,000  Level Boston Center
Mon 04:37:16 PM 41.4931 -72.9514 64° Northeast 449 517 15,000  Level Boston Center
Mon 04:38:16 PM 41.5528 -72.7903 64° Northeast 451 519 15,000  Level Boston Center
Mon 04:39:17 PM 41.6161 -72.6489 59° Northeast 448 516 15,000  Level Boston Center
Mon 04:40:18 PM 41.7008 -72.5306 46° Northeast 442 509 15,000 -212 Level Boston Center
Mon 04:40:42 PM 41.7347 -72.4828 46° Northeast 441 507 14,700 -1,967 Descending Boston Center
Mon 04:41:19 PM 41.7908 -72.4053 46° Northeast 437 503 13,000 -2,449 Descending Boston Center
Mon 04:41:31 PM 41.8028 -72.3889 46° Northeast 436 502 12,700 -1,905 Descending Boston Center
Mon 04:42:22 PM 41.8731 -72.2906 46° Northeast 429 494 11,000 -2,000 Descending Boston Center
Mon 04:42:25 PM 41.8797 -72.2833 39° Northeast 418 481 10,900 -828 Descending Boston Center
Mon 04:43:20 PM 41.9517 -72.2019 40° Northeast 355 409 10,200 -724 Descending Boston Center
Mon 04:43:23 PM 41.9519 -72.2006 75° East 370 426 10,200 -1,125 Level Boston Center
Mon 04:44:24 PM 42.0225 -72.1217 40° Northeast 307 353 9,000 -1,114 Descending Boston Center
Mon 04:44:33 PM 42.0292 -72.1136 42° Northeast 289 333 8,900 -900 Descending Boston Center
Mon 04:45:24 PM 42.0833 -72.0522 40° Northeast 290 334 8,100 -1,000 Descending Boston Center
Mon 04:45:33 PM 42.0925 -72.0433 36° Northeast 288 331 7,900 -1,048 Descending Boston Center
Mon 04:46:27 PM 42.1425 -71.9889 39° Northeast 272 313 7,000 -1,000 Descending Boston Center
Mon 04:46:33 PM 42.1500 -71.9794 43° Northeast 256 295 6,900 -984 Descending Boston Center
Mon 04:47:28 PM 42.1967 -71.9286 39° Northeast 253 291 6,000 -984 Descending Boston Center
Mon 04:47:34 PM 42.2044 -71.9203 38° Northeast 252 290 5,900 -787 Descending Boston Center
Mon 04:48:29 PM 42.2553 -71.8625 40° Northeast 259 298 5,200 -462 Descending Boston Center
Mon 04:49:31 PM 42.3119 -71.8031 38° Northeast 259 298 5,000 -98 Descending Boston Center
Mon 04:50:31 PM 42.3697 -71.7361 41° Northeast 263 303 5,000 -129 Level Boston Center
Mon 04:51:50 PM 42.4167 -71.6167 62° Northeast 277 319 4,700 -691 Descending KA90
Mon 04:52:50 PM 42.4667 -71.5333 51° Northeast 259 298 3,400 -1,300 Descending KA90
Mon 04:53:50 PM 42.5000 -71.4667 56° Northeast 235 270 2,100 -850 Descending KA90
Mon 04:54:50 PM 42.5000 -71.3833 90° East 218 251 1,700 -200 Descending KA90
Mon 04:55:50 PM 42.5000 -71.3000 90° East 195 224 1,700 -50 Level KA90
Mon 04:56:50 PM 42.5000 -71.2333 90° East 176 203 1,600 -491 Descending KA90
Mon 04:58:41 PM 42.4686 -71.2739 224° Southwest 110 127 300 -703 Descending Boston Center
Mon 05:00:00 PM 42.4667 -71.2833 270° West  Level FlightAware Approximate

Login

Don't have an account? Register now (free) for customized features, flight alerts, and more!